Time;durP1;ratioP1;P1;durP2;ratioP2;P2;SDS_P1;SDS_P2;PMS_P1;PMS_P2;Temp;Humidity;BMP_temperature;BMP_pressure;BME280_temperature;BME280_humidity;BME280_pressure;Samples;Min_cycle;Max_cycle;Signal;HPM_P1;HPM_P2
2022/03/05 00:00:25;;;;;;;;;;;;;;;20.65;38.17;101979.78;5075100;28;4200;-71
2022/03/05 00:02:51;;;;;;;;;;;;;;;20.65;38.08;101971.16;5075453;28;5003;-72
2022/03/05 00:05:18;;;;;;;;;;;;;;;20.66;38.25;101966.16;5076409;28;4496;-72
2022/03/05 00:07:45;;;;;;;;;;;;;;;20.66;38.25;101977.66;5077343;28;4177;-73
2022/03/05 00:10:12;;;;;;;;;;;;;;;20.66;38.24;101971.91;5077220;28;4139;-72
2022/03/05 00:12:38;;;;;;;;;;;;;;;20.65;38.23;101973.28;5076562;28;4299;-72
2022/03/05 00:15:05;;;;;;;;;;;;;;;20.64;38.31;101969.66;5075496;28;4045;-72
2022/03/05 00:17:31;;;;;;;;;;;;;;;20.63;38.32;101970.28;5077066;28;4220;-72
2022/03/05 00:19:58;;;;;;;;;;;;;;;20.63;38.35;101967.41;5076769;28;5487;-72
2022/03/05 00:22:24;;;;;;;;;;;;;;;20.64;38.34;101974.69;5078474;28;4465;-72
2022/03/05 00:24:50;;;;;;;;;;;;;;;20.64;38.25;101968.91;5076871;28;4221;-73
2022/03/05 00:27:17;;;;;;;;;;;;;;;20.64;38.34;101966.03;5076034;28;4419;-73
2022/03/05 00:29:44;;;;;;;;;;;;;;;20.64;38.30;101969.66;5076393;28;4428;-72
2022/03/05 00:32:11;;;;;;;;;;;;;;;20.65;38.36;101967.53;5075914;28;4579;-72
2022/03/05 00:34:37;;;;;;;;;;;;;;;20.63;38.25;101965.28;5077393;28;4116;-73
2022/03/05 00:37:05;;;;;;;;;;;;;;;20.63;38.34;101967.41;5077135;28;4517;-72
2022/03/05 00:39:31;;;;;;;;;;;;;;;20.62;38.30;101958.03;5061360;28;4293;-73
2022/03/05 00:41:58;;;;;;;;;;;;;;;20.63;38.28;101958.75;5077020;28;4232;-72
2022/03/05 00:44:24;;;;;;;;;;;;;;;20.61;38.36;101959.38;5074935;28;4494;-73
2022/03/05 00:46:50;;;;;;;;;;;;;;;20.62;38.35;101957.28;5076299;28;4211;-72
2022/03/05 00:49:17;;;;;;;;;;;;;;;20.63;38.33;101953.00;5077481;28;5254;-72
2022/03/05 00:51:43;;;;;;;;;;;;;;;20.63;38.38;101956.63;5076550;28;4311;-72
2022/03/05 00:54:10;;;;;;;;;;;;;;;20.63;38.25;101962.38;5075399;28;3973;-72
2022/03/05 00:56:36;;;;;;;;;;;;;;;20.64;38.25;101957.41;5076996;28;4103;-72
2022/03/05 00:59:03;;;;;;;;;;;;;;;20.65;38.31;101953.13;5075824;28;4245;-72
2022/03/05 01:01:29;;;;;;;;;;;;;;;20.65;38.17;101956.75;5076582;28;4141;-72
2022/03/05 01:03:56;;;;;;;;;;;;;;;20.66;38.15;101960.38;5077658;28;4216;-72
2022/03/05 01:06:22;;;;;;;;;;;;;;;20.65;38.17;101959.63;5080760;28;4234;-72
2022/03/05 01:08:49;;;;;;;;;;;;;;;20.65;38.29;101964.66;5078987;28;4873;-72
2022/03/05 01:11:16;;;;;;;;;;;;;;;20.65;38.27;101964.66;5080008;28;4228;-71
2022/03/05 01:13:42;;;;;;;;;;;;;;;20.64;38.25;101968.91;5081262;28;4020;-72
2022/03/05 01:16:09;;;;;;;;;;;;;;;20.63;38.30;101955.88;5075448;28;5281;-72
2022/03/05 01:18:35;;;;;;;;;;;;;;;20.63;38.30;101959.50;5080328;28;4118;-72
2022/03/05 01:21:02;;;;;;;;;;;;;;;20.64;38.28;101969.66;5080428;28;4182;-72
2022/03/05 01:23:28;;;;;;;;;;;;;;;20.64;38.35;101972.53;5081397;28;4426;-72
2022/03/05 01:25:54;;;;;;;;;;;;;;;20.65;38.38;101973.28;5078158;28;4508;-72
2022/03/05 01:28:21;;;;;;;;;;;;;;;20.65;38.46;101970.41;5079264;28;4217;-72
2022/03/05 01:30:47;;;;;;;;;;;;;;;20.64;38.41;101966.03;5080479;28;4353;-72
2022/03/05 01:33:15;;;;;;;;;;;;;;;20.63;38.31;101968.16;5079453;28;4033;-71
2022/03/05 01:35:42;;;;;;;;;;;;;;;20.64;38.41;101966.03;5079431;28;4190;-72
2022/03/05 01:38:08;;;;;;;;;;;;;;;20.63;38.40;101965.28;5079939;28;4202;-72
2022/03/05 01:40:34;;;;;;;;;;;;;;;20.62;38.36;101963.03;5079164;28;4284;-72
2022/03/05 01:43:01;;;;;;;;;;;;;;;20.61;38.37;101965.13;5080705;28;3976;-71
2022/03/05 01:45:27;;;;;;;;;;;;;;;20.62;38.36;101954.41;5078591;28;4276;-72
2022/03/05 01:47:53;;;;;;;;;;;;;;;20.62;38.22;101955.16;5080867;28;4249;-72
2022/03/05 01:50:20;;;;;;;;;;;;;;;20.64;38.30;101951.66;5081053;28;4066;-72
2022/03/05 01:52:46;;;;;;;;;;;;;;;20.64;38.25;101945.91;5079591;28;4182;-72
2022/03/05 01:55:12;;;;;;;;;;;;;;;20.66;38.28;101951.75;5077587;28;5291;-72
2022/03/05 01:57:39;;;;;;;;;;;;;;;20.66;38.26;101946.00;5078673;28;4255;-72
2022/03/05 02:00:05;;;;;;;;;;;;;;;20.65;38.38;101948.13;5081136;28;4096;-72
2022/03/05 02:02:37;;;;;;;;;;;;;;;20.66;38.30;101948.88;5078371;28;4126;-72
2022/03/05 02:05:03;;;;;;;;;;;;;;;20.65;38.30;101951.00;5076356;28;4511;-72
2022/03/05 02:07:30;;;;;;;;;;;;;;;20.65;38.31;101941.63;5076700;28;4364;-72
2022/03/05 02:09:56;;;;;;;;;;;;;;;20.63;38.39;101948.00;5079576;28;4141;-71
2022/03/05 02:12:29;;;;;;;;;;;;;;;20.62;38.41;101952.25;5079679;28;4179;-72
2022/03/05 02:14:56;;;;;;;;;;;;;;;20.63;38.35;101950.88;5076169;28;5286;-71
2022/03/05 02:17:22;;;;;;;;;;;;;;;20.63;38.37;101945.13;5076435;28;4130;-71
2022/03/05 02:19:48;;;;;;;;;;;;;;;20.63;38.31;101944.38;5073856;28;4217;-71
2022/03/05 02:22:15;;;;;;;;;;;;;;;20.64;38.25;101949.53;5079689;28;4083;-72
2022/03/05 02:24:41;;;;;;;;;;;;;;;20.65;38.33;101935.88;5077564;28;5401;-72
2022/03/05 02:27:10;;;;;;;;;;;;;;;20.63;38.29;101939.38;5072553;28;5158;-72
2022/03/05 02:29:36;;;;;;;;;;;;;;;20.62;38.19;101934.25;5073182;28;5468;-72
2022/03/05 02:32:03;;;;;;;;;;;;;;;20.62;38.36;101934.25;5076766;28;4191;-72
2022/03/05 02:34:29;;;;;;;;;;;;;;;20.62;38.22;101937.13;5077501;28;4212;-72
2022/03/05 02:36:55;;;;;;;;;;;;;;;20.62;38.38;101935.00;5079252;28;4407;-72
2022/03/05 02:39:25;;;;;;;;;;;;;;;20.62;38.39;101937.13;5079609;28;4111;-71
2022/03/05 02:41:53;;;;;;;;;;;;;;;20.62;38.23;101929.25;5079369;28;3974;-71
2022/03/05 02:44:19;;;;;;;;;;;;;;;20.63;38.31;101935.75;5080039;28;4249;-71
2022/03/05 02:46:46;;;;;;;;;;;;;;;20.63;38.35;101927.84;5078213;28;4036;-71
2022/03/05 02:49:12;;;;;;;;;;;;;;;20.64;38.29;101922.88;5078177;28;4197;-71
2022/03/05 02:51:38;;;;;;;;;;;;;;;20.65;38.34;101927.97;5078196;28;4177;-71
2022/03/05 02:54:05;;;;;;;;;;;;;;;20.64;38.20;101926.50;5077731;28;4144;-71
2022/03/05 02:56:31;;;;;;;;;;;;;;;20.65;38.30;101930.13;5078252;28;3965;-71
2022/03/05 02:58:57;;;;;;;;;;;;;;;20.66;38.21;101928.72;5078137;28;5236;-71
2022/03/05 03:01:24;;;;;;;;;;;;;;;20.65;38.35;101930.13;5076883;28;4533;-71
2022/03/05 03:03:51;;;;;;;;;;;;;;;20.64;38.25;101931.50;5078056;28;4132;-72
2022/03/05 03:06:17;;;;;;;;;;;;;;;20.63;38.31;101927.09;5079012;28;4032;-71
2022/03/05 03:08:43;;;;;;;;;;;;;;;20.62;38.40;101934.25;5078721;28;3986;-71
2022/03/05 03:11:10;;;;;;;;;;;;;;;20.62;38.29;101931.38;5078237;28;4575;-71
2022/03/05 03:13:37;;;;;;;;;;;;;;;20.63;38.33;101921.34;5076853;28;5358;-72
2022/03/05 03:16:04;;;;;;;;;;;;;;;20.63;38.28;101932.88;5078340;28;4187;-71
2022/03/05 03:18:30;;;;;;;;;;;;;;;20.63;38.16;101922.09;5078477;28;4113;-71
2022/03/05 03:20:56;;;;;;;;;;;;;;;20.62;38.26;101932.13;5078676;28;4029;-71
2022/03/05 03:23:23;;;;;;;;;;;;;;;20.62;38.34;101931.38;5079080;28;4138;-70
2022/03/05 03:25:49;;;;;;;;;;;;;;;20.62;38.37;101923.50;5079008;28;4176;-70
2022/03/05 03:28:21;;;;;;;;;;;;;;;20.61;38.23;101926.97;5081717;28;4198;-71
2022/03/05 03:30:47;;;;;;;;;;;;;;;20.60;38.31;101928.38;5079196;28;4027;-71
2022/03/05 03:33:14;;;;;;;;;;;;;;;20.60;38.39;101929.09;5080446;28;4059;-71
2022/03/05 03:35:40;;;;;;;;;;;;;;;20.61;38.40;101929.84;5079319;28;5338;-71
2022/03/05 03:38:06;;;;;;;;;;;;;;;20.62;38.16;101932.13;5077861;28;4326;-71
2022/03/05 03:40:33;;;;;;;;;;;;;;;20.62;38.16;101928.50;5081162;28;4175;-71
2022/03/05 03:42:59;;;;;;;;;;;;;;;20.63;38.28;101933.59;5077455;28;3982;-71
2022/03/05 03:45:25;;;;;;;;;;;;;;;20.64;38.21;101928.63;5077842;28;4038;-71
2022/03/05 03:47:52;;;;;;;;;;;;;;;20.63;38.25;101927.09;5078135;28;5110;-70
2022/03/05 03:50:19;;;;;;;;;;;;;;;20.64;38.25;101926.50;5079468;28;4156;-71
2022/03/05 03:52:46;;;;;;;;;;;;;;;20.67;38.22;101936.00;5078284;28;4263;-71
2022/03/05 03:55:13;;;;;;;;;;;;;;;20.67;38.17;101936.00;5078342;28;4201;-71
2022/03/05 03:57:39;;;;;;;;;;;;;;;20.67;38.31;101939.63;5080433;28;4255;-71
2022/03/05 04:00:06;;;;;;;;;;;;;;;20.67;38.36;101939.63;5077722;28;4005;-71
2022/03/05 04:02:37;;;;;;;;;;;;;;;20.66;38.33;101943.13;5076504;28;4036;-72
2022/03/05 04:05:03;;;;;;;;;;;;;;;20.65;38.24;101941.63;5074295;28;4032;-72
2022/03/05 04:10:15;;;;;;;;;;;;;;;20.65;38.30;101956.03;5076795;28;5138;-72
2022/03/05 04:12:41;;;;;;;;;;;;;;;20.64;38.30;101946.63;5077612;28;4173;-72
2022/03/05 04:15:08;;;;;;;;;;;;;;;20.65;38.31;101947.38;5077653;28;4140;-71
2022/03/05 04:17:34;;;;;;;;;;;;;;;20.67;38.22;101947.50;5077942;28;4224;-71
2022/03/05 04:20:00;;;;;;;;;;;;;;;20.66;38.30;101948.88;5076463;28;4970;-71
2022/03/05 04:22:30;;;;;;;;;;;;;;;20.64;38.32;101957.41;5076762;28;4848;-72
2022/03/05 04:24:56;;;;;;;;;;;;;;;20.64;38.32;101951.66;5078365;28;4331;-71
2022/03/05 04:27:23;;;;;;;;;;;;;;;20.63;38.37;101950.88;5074616;28;4397;-72
2022/03/05 04:29:49;;;;;;;;;;;;;;;20.63;38.31;101955.88;5073257;28;4128;-71
2022/03/05 04:32:16;;;;;;;;;;;;;;;20.63;38.28;101950.13;5074238;28;3974;-72
2022/03/05 04:34:42;;;;;;;;;;;;;;;20.62;38.26;101955.16;5074233;28;3979;-72
2022/03/05 04:37:10;;;;;;;;;;;;;;;20.65;38.28;101953.88;5075382;28;3981;-70
2022/03/05 04:39:36;;;;;;;;;;;;;;;20.54;38.29;101942.34;5078010;28;4268;-69
2022/03/05 04:42:03;;;;;;;;;;;;;;;20.40;37.92;101950.81;5076943;28;4901;-68
2022/03/05 04:44:29;;;;;;;;;;;;;;;20.43;38.01;101958.19;5075952;28;5743;-69
2022/03/05 04:46:56;;;;;;;;;;;;;;;20.45;37.64;101958.34;5080343;28;4682;-69
2022/03/05 04:49:23;;;;;;;;;;;;;;;20.48;38.83;101952.09;5082038;28;4752;-69
2022/03/05 04:51:49;;;;;;;;;;;;;;;20.50;38.89;101960.84;5080286;28;5346;-69
2022/03/05 04:54:15;;;;;;;;;;;;;;;20.50;38.64;101955.09;5081415;28;4347;-69
2022/03/05 04:56:42;;;;;;;;;;;;;;;20.51;38.77;101967.34;5081407;28;4372;-69
2022/03/05 04:59:08;;;;;;;;;;;;;;;20.51;39.17;101961.59;5080035;28;4084;-69
2022/03/05 05:01:34;;;;;;;;;;;;;;;20.49;39.09;101965.09;5079661;28;4040;-69
2022/03/05 05:04:01;;;;;;;;;;;;;;;20.49;39.03;101961.47;5081138;28;4054;-69
2022/03/05 05:06:28;;;;;;;;;;;;;;;20.48;39.12;101963.59;5081141;28;4211;-69
2022/03/05 05:08:54;;;;;;;;;;;;;;;20.46;39.15;101966.34;5081562;28;4277;-69
2022/03/05 05:11:20;;;;;;;;;;;;;;;20.45;39.31;101964.84;5080975;28;4203;-69
2022/03/05 05:13:47;;;;;;;;;;;;;;;20.45;39.31;101970.59;5080807;28;4228;-69
2022/03/05 05:16:13;;;;;;;;;;;;;;;20.43;39.22;101967.59;5081024;28;4137;-69
2022/03/05 05:19:24;;;;;;;;;;;;;;;20.42;39.32;101977.59;5081404;28;4197;-69
2022/03/05 05:21:26;;;;;;;;;;;;;;;20.41;39.26;101978.97;5080400;28;5373;-69
2022/03/05 05:23:53;;;;;;;;;;;;;;;20.39;39.27;101978.84;5080701;28;5285;-69
2022/03/05 05:26:19;;;;;;;;;;;;;;;20.41;39.49;101969.56;5079904;28;4038;-69
2022/03/05 05:28:45;;;;;;;;;;;;;;;20.41;39.38;101976.09;5079305;28;4216;-69
2022/03/05 05:31:12;;;;;;;;;;;;;;;20.41;39.31;101975.34;5076534;28;4185;-69
2022/03/05 05:33:39;;;;;;;;;;;;;;;20.42;39.31;101976.84;5080523;28;3988;-69
2022/03/05 05:36:06;;;;;;;;;;;;;;;20.42;39.25;101988.34;5079432;28;5103;-69
2022/03/05 05:38:32;;;;;;;;;;;;;;;20.44;39.03;101986.34;5080819;28;4302;-69
2022/03/05 05:40:58;;;;;;;;;;;;;;;20.43;39.36;101986.97;5080548;28;4134;-69
2022/03/05 05:43:25;;;;;;;;;;;;;;;20.44;39.48;101980.59;5080645;28;4050;-69
2022/03/05 05:45:51;;;;;;;;;;;;;;;20.45;39.42;101987.09;5079372;28;4158;-68
2022/03/05 05:48:17;;;;;;;;;;;;;;;20.46;39.42;101994.38;5079658;28;4134;-69
2022/03/05 05:50:44;;;;;;;;;;;;;;;20.45;39.35;101987.84;5079235;28;4058;-69
2022/03/05 05:53:11;;;;;;;;;;;;;;;20.45;39.22;101993.59;5079652;28;4515;-69
2022/03/05 05:55:37;;;;;;;;;;;;;;;20.47;39.46;101993.00;5079308;28;4220;-69
2022/03/05 05:58:03;;;;;;;;;;;;;;;20.44;39.50;101989.22;5077665;28;4490;-69
2022/03/05 06:00:31;;;;;;;;;;;;;;;20.44;39.46;101992.13;5079733;28;4036;-69
2022/03/05 06:02:57;;;;;;;;;;;;;;;20.43;39.36;101984.09;5079811;28;4126;-68
2022/03/05 06:05:23;;;;;;;;;;;;;;;20.42;39.46;102000.63;5079783;28;3960;-69
2022/03/05 06:07:50;;;;;;;;;;;;;;;20.41;39.48;101999.13;5077682;28;4035;-68
2022/03/05 06:10:16;;;;;;;;;;;;;;;20.40;39.45;101991.84;5078820;28;4039;-69
2022/03/05 06:12:45;;;;;;;;;;;;;;;20.40;39.22;101991.84;5079967;28;4216;-69
2022/03/05 06:15:11;;;;;;;;;;;;;;;20.39;39.37;102001.88;5079385;28;4138;-70
2022/03/05 06:17:40;;;;;;;;;;;;;;;20.40;39.38;102002.59;5078236;28;4171;-69
2022/03/05 06:20:07;;;;;;;;;;;;;;;20.38;39.28;102008.97;5079925;28;3939;-69
2022/03/05 06:22:33;;;;;;;;;;;;;;;20.38;39.40;102016.88;5078203;28;4278;-69
2022/03/05 06:24:59;;;;;;;;;;;;;;;20.39;39.24;102012.63;5079295;28;4031;-69
2022/03/05 06:27:26;;;;;;;;;;;;;;;20.39;39.40;102013.38;5078366;28;4013;-69
2022/03/05 06:29:53;;;;;;;;;;;;;;;20.39;39.34;102010.50;5079321;28;4156;-69
2022/03/05 06:32:19;;;;;;;;;;;;;;;20.40;39.43;102008.38;5080467;28;4787;-68
2022/03/05 06:34:46;;;;;;;;;;;;;;;20.40;39.38;102023.50;5080147;28;4301;-69
2022/03/05 06:37:12;;;;;;;;;;;;;;;20.41;39.37;102022.13;5079989;28;4201;-69
2022/03/05 06:39:39;;;;;;;;;;;;;;;20.43;39.38;102019.41;5079435;28;4115;-69
2022/03/05 06:42:06;;;;;;;;;;;;;;;20.42;39.53;102029.38;5079317;28;4585;-69
2022/03/05 06:44:35;;;;;;;;;;;;;;;20.44;39.44;102026.63;5077023;28;4717;-69
2022/03/05 06:47:02;;;;;;;;;;;;;;;20.44;39.31;102023.75;5077148;28;4871;-69
2022/03/05 06:49:28;;;;;;;;;;;;;;;20.45;39.35;102024.50;5075212;28;4087;-69
2022/03/05 06:51:55;;;;;;;;;;;;;;;20.43;39.33;102036.66;5076016;28;4357;-68
2022/03/05 06:54:21;;;;;;;;;;;;;;;20.43;39.21;102048.16;5076407;28;4063;-69
2022/03/05 06:56:48;;;;;;;;;;;;;;;20.43;39.35;102045.28;5075568;28;4855;-69
2022/03/05 06:59:14;;;;;;;;;;;;;;;20.42;39.23;102040.16;5074878;28;4079;-69
2022/03/05 07:01:40;;;;;;;;;;;;;;;20.43;39.15;102035.88;5075410;28;4511;-69
2022/03/05 07:04:07;;;;;;;;;;;;;;;20.42;39.25;102031.50;5074870;28;4185;-69
2022/03/05 07:06:33;;;;;;;;;;;;;;;20.41;39.30;102039.41;5075541;28;4157;-68
2022/03/05 07:09:00;;;;;;;;;;;;;;;20.39;39.26;102036.38;5076154;28;3977;-69
2022/03/05 07:11:26;;;;;;;;;;;;;;;20.40;39.26;102040.00;5075757;28;4094;-69
2022/03/05 07:13:53;;;;;;;;;;;;;;;20.38;39.31;102034.88;5076499;28;4520;-68
2022/03/05 07:16:19;;;;;;;;;;;;;;;20.39;39.28;102035.66;5074830;28;4071;-70
2022/03/05 07:18:45;;;;;;;;;;;;;;;20.39;39.29;102041.41;5076512;28;5342;-69
2022/03/05 07:21:12;;;;;;;;;;;;;;;20.40;39.24;102042.88;5075427;28;4151;-69
2022/03/05 07:23:38;;;;;;;;;;;;;;;20.39;39.29;102047.91;5077130;28;5272;-69
2022/03/05 07:26:05;;;;;;;;;;;;;;;20.41;39.22;102041.50;5076598;28;4055;-68
2022/03/05 07:28:31;;;;;;;;;;;;;;;20.41;39.26;102042.28;5076427;28;4610;-69
2022/03/05 07:30:57;;;;;;;;;;;;;;;20.41;39.38;102042.28;5074216;28;4679;-68
2022/03/05 07:33:24;;;;;;;;;;;;;;;20.43;39.24;102048.16;5076388;28;4219;-69
2022/03/05 07:35:50;;;;;;;;;;;;;;;20.44;39.21;102043.91;5074721;28;5486;-69
2022/03/05 07:38:16;;;;;;;;;;;;;;;20.45;39.32;102045.41;5076143;28;5245;-69
2022/03/05 07:40:43;;;;;;;;;;;;;;;20.46;39.31;102046.16;5074222;28;5689;-69
2022/03/05 07:43:09;;;;;;;;;;;;;;;20.46;39.34;102049.78;5075450;28;4144;-69
2022/03/05 07:45:35;;;;;;;;;;;;;;;20.46;39.30;102061.31;5077476;28;4211;-69
2022/03/05 07:48:02;;;;;;;;;;;;;;;20.46;39.33;102049.78;5075802;28;4306;-69
2022/03/05 07:50:28;;;;;;;;;;;;;;;20.44;39.34;102048.91;5076125;28;4510;-69
2022/03/05 07:52:54;;;;;;;;;;;;;;;20.44;39.33;102052.53;5073713;28;4075;-69
2022/03/05 07:55:21;;;;;;;;;;;;;;;20.44;39.26;102049.66;5075448;28;4043;-69
2022/03/05 07:57:47;;;;;;;;;;;;;;;20.44;39.32;102048.91;5076543;28;4959;-70
2022/03/05 08:00:13;;;;;;;;;;;;;;;20.43;39.34;102050.28;5074841;28;4368;-69
2022/03/05 08:02:48;;;;;;;;;;;;;;;20.44;39.37;102060.41;5076388;28;4055;-69
2022/03/05 08:05:15;;;;;;;;;;;;;;;20.43;39.76;102059.69;5077379;28;5495;-69
2022/03/05 08:07:41;;;;;;;;;;;;;;;20.42;39.58;102057.41;5078156;28;4405;-70
2022/03/05 08:10:08;;;;;;;;;;;;;;;20.40;39.49;102049.38;5076502;28;4418;-69
2022/03/05 08:12:34;;;;;;;;;;;;;;;20.40;39.71;102054.41;5078530;28;4148;-69
2022/03/05 08:15:01;;;;;;;;;;;;;;;20.40;39.63;102055.16;5076138;28;3989;-69
2022/03/05 08:17:27;;;;;;;;;;;;;;;20.41;39.86;102056.66;5076715;28;4169;-69
2022/03/05 08:19:54;;;;;;;;;;;;;;;20.43;39.88;102059.69;5077340;28;5216;-69
2022/03/05 08:22:21;;;;;;;;;;;;;;;20.45;40.01;102056.91;5077304;28;4157;-69
2022/03/05 08:24:47;;;;;;;;;;;;;;;20.46;40.17;102057.69;5078228;28;4186;-69
2022/03/05 08:27:14;;;;;;;;;;;;;;;20.46;40.08;102052.66;5077195;28;4371;-69
2022/03/05 08:29:40;;;;;;;;;;;;;;;20.45;40.20;102061.91;5078196;28;4068;-69
2022/03/05 08:32:07;;;;;;;;;;;;;;;20.45;40.24;102054.03;5077483;28;5522;-69
2022/03/05 08:34:34;;;;;;;;;;;;;;;20.44;40.22;102055.41;5077014;28;4432;-69
2022/03/05 08:37:00;;;;;;;;;;;;;;;20.44;40.35;102061.16;5076157;28;4250;-69
2022/03/05 08:39:28;;;;;;;;;;;;;;;20.46;39.90;102058.44;5076371;28;4048;-68
2022/03/05 08:41:54;;;;;;;;;;;;;;;20.46;40.22;102049.78;5077244;28;5222;-68
2022/03/05 08:44:21;;;;;;;;;;;;;;;20.47;39.99;102054.16;5078175;28;4049;-68
2022/03/05 08:46:48;;;;;;;;;;;;;;;20.66;40.11;102056.16;5077216;28;5342;-68
2022/03/05 08:49:14;;;;;;;;;;;;;;;20.57;40.20;102051.25;5076222;28;4032;-68
2022/03/05 08:51:40;;;;;;;;;;;;;;;20.55;40.07;102056.06;5075247;28;4079;-68
2022/03/05 08:54:07;;;;;;;;;;;;;;;20.59;40.86;102056.34;5076160;28;4199;-67
2022/03/05 08:56:33;;;;;;;;;;;;;;;20.65;41.03;102056.75;5076503;28;3995;-69
2022/03/05 08:58:59;;;;;;;;;;;;;;;20.62;41.07;102063.75;5075408;28;4180;-69
2022/03/05 09:01:27;;;;;;;;;;;;;;;20.59;40.98;102059.22;5078117;28;3948;-69
2022/03/05 09:03:53;;;;;;;;;;;;;;;20.57;41.22;102059.09;5076275;28;4167;-69
2022/03/05 09:06:20;;;;;;;;;;;;;;;20.54;41.64;102051.69;5077151;28;4297;-68
2022/03/05 09:08:46;;;;;;;;;;;;;;;20.61;41.38;102059.38;5077115;28;3976;-66
2022/03/05 09:11:12;;;;;;;;;;;;;;;20.76;41.43;102053.16;5077125;28;3992;-70
2022/03/05 09:13:39;;;;;;;;;;;;;;;20.68;41.16;102052.63;5078495;28;4119;-71
2022/03/05 09:16:05;;;;;;;;;;;;;;;20.67;42.08;102054.00;5077285;28;4248;-67
2022/03/05 09:18:32;;;;;;;;;;;;;;;20.67;42.26;102054.00;5078613;28;4222;-66
2022/03/05 09:20:58;;;;;;;;;;;;;;;20.70;41.88;102053.50;5076328;28;4096;-67
2022/03/05 09:23:24;;;;;;;;;;;;;;;20.75;42.22;102054.50;5076112;28;4080;-65
2022/03/05 09:25:51;;;;;;;;;;;;;;;20.68;42.30;102055.50;5079815;28;4430;-65
2022/03/05 09:28:17;;;;;;;;;;;;;;;20.73;42.44;102051.53;5079652;28;4284;-68
2022/03/05 09:30:43;;;;;;;;;;;;;;;20.80;42.31;102041.91;5079904;28;5304;-72
2022/03/05 09:33:11;;;;;;;;;;;;;;;20.70;42.58;102041.97;5081599;28;4158;-72
2022/03/05 09:35:38;;;;;;;;;;;;;;;20.67;42.46;102042.50;5080609;28;4128;-69
2022/03/05 09:38:05;;;;;;;;;;;;;;;20.66;42.70;102053.25;5078505;28;4015;-60
2022/03/05 09:40:31;;;;;;;;;;;;;;;20.67;42.57;102043.25;5079912;28;5231;-67
2022/03/05 09:42:57;;;;;;;;;;;;;;;20.68;42.52;102047.63;5079438;28;4177;-67
2022/03/05 09:45:24;;;;;;;;;;;;;;;20.68;42.54;102044.75;5062360;28;4165;-69
2022/03/05 09:47:50;;;;;;;;;;;;;;;20.70;42.42;102047.75;5079079;28;5257;-68
2022/03/05 09:50:16;;;;;;;;;;;;;;;20.73;42.46;102051.53;5078799;28;4529;-64
2022/03/05 09:52:43;;;;;;;;;;;;;;;20.74;42.56;102053.03;5080653;28;4056;-68
2022/03/05 09:55:09;;;;;;;;;;;;;;;20.75;42.30;102036.50;5080008;28;4158;-67
2022/03/05 09:57:36;;;;;;;;;;;;;;;20.74;42.24;102049.41;5080460;28;4118;-68
2022/03/05 10:00:02;;;;;;;;;;;;;;;20.74;42.35;102035.00;5078373;28;4131;-66
2022/03/05 10:02:30;;;;;;;;;;;;;;;20.81;42.09;102046.28;5078790;28;4159;-70
2022/03/05 10:05:12;;;;;;;;;;;;;;;20.78;42.15;102047.53;5078449;28;4169;-68
2022/03/05 10:07:38;;;;;;;;;;;;;;;20.82;41.96;102039.16;5079235;28;4158;-66
2022/03/05 10:10:08;;;;;;;;;;;;;;;20.79;42.13;102051.91;5079176;28;5331;-66
2022/03/05 10:12:35;;;;;;;;;;;;;;;20.76;42.25;102041.63;5080615;28;5198;-66
2022/03/05 10:15:11;;;;;;;;;;;;;;;20.76;42.44;102032.25;5080232;28;4518;-67
2022/03/05 10:18:04;;;;;;;;;;;;;;;20.76;42.49;102041.63;5077873;28;4084;-66
2022/03/05 10:20:31;;;;;;;;;;;;;;;20.75;42.40;102040.13;5078409;28;4359;-67
2022/03/05 10:23:04;;;;;;;;;;;;;;;20.76;42.38;102038.00;5079902;28;4343;-67
2022/03/05 10:25:31;;;;;;;;;;;;;;;20.74;42.32;102035.75;5080545;28;4054;-66
2022/03/05 10:28:01;;;;;;;;;;;;;;;20.74;42.43;102035.75;5078998;28;4128;-66
2022/03/05 10:30:28;;;;;;;;;;;;;;;20.74;42.41;102035.75;5078489;28;5338;-67
2022/03/05 10:32:55;;;;;;;;;;;;;;;20.74;42.49;102030.00;5079139;28;4152;-67
2022/03/05 10:35:21;;;;;;;;;;;;;;;20.74;42.58;102024.22;5060930;28;4163;-68
2022/03/05 10:37:53;;;;;;;;;;;;;;;20.76;42.09;102027.25;5078110;28;4116;-66
2022/03/05 10:40:27;;;;;;;;;;;;;;;20.82;42.02;102021.88;5079695;28;4089;-66
2022/03/05 10:42:53;;;;;;;;;;;;;;;20.84;42.11;102027.00;5079185;28;4213;-66
2022/03/05 10:45:22;;;;;;;;;;;;;;;20.82;42.45;102019.00;5080553;28;4274;-66
2022/03/05 10:47:48;;;;;;;;;;;;;;;20.83;42.27;102025.50;5079627;28;4040;-65
2022/03/05 10:50:14;;;;;;;;;;;;;;;20.81;42.23;102014.59;5079950;28;4207;-66
2022/03/05 10:52:44;;;;;;;;;;;;;;;20.81;42.19;102017.47;5079693;28;4193;-66
2022/03/05 10:55:14;;;;;;;;;;;;;;;20.46;41.72;102012.38;5079672;28;4003;-66
2022/03/05 10:57:41;;;;;;;;;;;;;;;20.58;42.05;102011.69;5079782;28;4186;-66
2022/03/05 11:00:07;;;;;;;;;;;;;;;20.65;41.73;102016.47;5077267;28;4250;-66
2022/03/05 11:02:34;;;;;;;;;;;;;;;20.71;41.68;101999.59;5078506;28;4307;-66
2022/03/05 11:05:01;;;;;;;;;;;;;;;20.74;41.93;102006.22;5077860;28;4188;-66
2022/03/05 11:07:27;;;;;;;;;;;;;;;20.76;42.00;101997.72;5078930;28;4237;-67
2022/03/05 11:09:54;;;;;;;;;;;;;;;20.77;41.81;101994.19;5078502;28;4404;-66
2022/03/05 11:12:21;;;;;;;;;;;;;;;20.77;41.88;101999.19;5067048;28;4154;-66
2022/03/05 11:14:48;;;;;;;;;;;;;;;20.77;41.77;101996.31;5077350;28;4062;-66
2022/03/05 11:17:14;;;;;;;;;;;;;;;20.76;41.93;101998.47;5078051;28;5649;-67
2022/03/05 11:19:41;;;;;;;;;;;;;;;20.76;41.98;101992.69;5076966;28;5044;-66
2022/03/05 11:22:08;;;;;;;;;;;;;;;20.76;41.82;101984.06;5078628;28;4112;-66
2022/03/05 11:24:34;;;;;;;;;;;;;;;20.75;41.82;101985.44;5079799;28;4263;-66
2022/03/05 11:27:01;;;;;;;;;;;;;;;20.76;41.80;101986.94;5061371;28;4582;-66
2022/03/05 11:29:28;;;;;;;;;;;;;;;20.77;41.80;101982.69;5059801;28;3932;-66
2022/03/05 11:32:11;;;;;;;;;;;;;;;20.80;41.69;101987.19;5078885;28;4111;-67
2022/03/05 11:34:44;;;;;;;;;;;;;;;20.77;41.78;101976.91;5077007;28;4262;-67
2022/03/05 11:37:17;;;;;;;;;;;;;;;20.77;41.87;101976.16;5078064;28;4950;-66
2022/03/05 11:39:43;;;;;;;;;;;;;;;20.77;41.76;101979.78;5077094;28;5319;-66
2022/03/05 11:42:10;;;;;;;;;;;;;;;20.77;41.83;101976.91;5078304;28;5245;-66
2022/03/05 11:44:36;;;;;;;;;;;;;;;20.75;41.76;101979.66;5078880;28;4051;-66
2022/03/05 11:47:18;;;;;;;;;;;;;;;20.76;41.76;101981.19;5078798;28;4622;-66
2022/03/05 11:49:59;;;;;;;;;;;;;;;20.76;41.66;101980.44;5077094;28;4174;-67
2022/03/05 11:52:37;;;;;;;;;;;;;;;20.75;41.87;101979.66;5078094;28;4162;-66
2022/03/05 11:55:16;;;;;;;;;;;;;;;20.76;41.80;101974.69;5078179;28;4156;-66
2022/03/05 11:57:52;;;;;;;;;;;;;;;20.76;41.80;101978.31;5076790;28;3984;-66
2022/03/05 12:00:18;;;;;;;;;;;;;;;20.76;41.72;101975.44;5076613;28;4124;-66
2022/03/05 12:02:45;;;;;;;;;;;;;;;20.77;41.71;101967.53;5075992;28;4147;-66
2022/03/05 12:05:30;;;;;;;;;;;;;;;20.79;41.60;101971.28;5077600;28;4215;-68
2022/03/05 12:07:56;;;;;;;;;;;;;;;20.84;41.49;101973.03;5078313;28;4061;-66
2022/03/05 12:10:23;;;;;;;;;;;;;;;19.90;38.33;101972.78;5078003;28;4269;-68
2022/03/05 12:12:56;;;;;;;;;;;;;;;20.16;38.70;101973.00;5076921;28;4178;-68
2022/03/05 12:15:28;;;;;;;;;;;;;;;20.40;39.60;101956.56;5078974;28;4027;-68
2022/03/05 12:17:55;;;;;;;;;;;;;;;20.49;39.90;101956.47;5077708;28;5311;-68
2022/03/05 12:20:23;;;;;;;;;;;;;;;20.58;39.72;101954.13;5078164;28;4386;-68
2022/03/05 12:22:55;;;;;;;;;;;;;;;20.61;40.18;101950.00;5077044;28;4071;-68
2022/03/05 12:25:22;;;;;;;;;;;;;;;20.64;40.44;101951.66;5077574;28;4187;-68
2022/03/05 12:27:52;;;;;;;;;;;;;;;20.64;40.45;101951.66;5078213;28;4830;-68
2022/03/05 12:30:20;;;;;;;;;;;;;;;20.64;40.92;101940.88;5079265;28;4040;-68
2022/03/05 12:32:47;;;;;;;;;;;;;;;20.65;40.73;101947.38;5076692;28;4123;-69
2022/03/05 12:35:16;;;;;;;;;;;;;;;20.64;40.99;101949.53;5075907;28;4326;-68
2022/03/05 12:37:43;;;;;;;;;;;;;;;20.65;40.94;101944.50;5079058;28;4510;-69
2022/03/05 12:40:09;;;;;;;;;;;;;;;20.64;41.02;101946.63;5078818;28;4254;-69
2022/03/05 12:42:36;;;;;;;;;;;;;;;20.63;40.99;101939.38;5077124;28;4112;-69
2022/03/05 12:45:03;;;;;;;;;;;;;;;20.70;40.73;101941.25;5077443;28;4221;-67
2022/03/05 12:47:34;;;;;;;;;;;;;;;20.68;40.69;101935.38;5076746;28;4000;-69
2022/03/05 12:50:19;;;;;;;;;;;;;;;20.63;40.18;101932.88;5077216;28;6296;-68